Time;durP1;ratioP1;P1;durP2;ratioP2;P2;SDS_P1;SDS_P2;PMS_P1;PMS_P2;Temp;Humidity;BMP_temperature;BMP_pressure;BME280_temperature;BME280_humidity;BME280_pressure;Samples;Min_cycle;Max_cycle;Signal;HPM_P1;HPM_P2
2022/08/01 00:02:11;;;;;;;29.42;20.60;;;;;;;18.68;100.00;68843.22;5020534;28;20030;-79
2022/08/01 00:04:37;;;;;;;27.77;18.88;;;;;;;18.61;100.00;68837.91;5020965;28;20045;-79
2022/08/01 00:07:03;;;;;;;25.80;17.10;;;;;;;18.60;100.00;68836.19;5021493;28;20042;-79
2022/08/01 00:09:28;;;;;;;29.10;17.13;;;;;;;18.60;100.00;68836.19;5020959;28;20582;-79
2022/08/01 00:11:54;;;;;;;26.25;18.50;;;;;;;;;;5019455;28;20080;-79
2022/08/01 00:14:19;;;;;;;25.83;18.05;;;;;;;18.51;100.00;68826.50;5019961;28;20034;-79
2022/08/01 00:16:44;;;;;;;24.27;17.02;;;;;;;18.47;100.00;68830.00;5019636;28;20109;-79
2022/08/01 00:19:10;;;;;;;25.80;17.20;;;;;;;18.49;100.00;68824.78;5019156;28;20274;-79
2022/08/01 00:21:35;;;;;;;24.48;15.82;;;;;;;;;;5019200;28;20085;-79
2022/08/01 00:24:01;;;;;;;25.33;14.47;;;;;;;18.45;100.00;68820.22;5018665;28;20052;-79
2022/08/01 00:26:26;;;;;;;25.60;17.75;;;;;;;18.41;100.00;68815.66;5012335;28;20314;-79
2022/08/01 00:28:51;;;;;;;23.48;17.00;;;;;;;18.43;100.00;68826.00;5011286;28;20033;-79
2022/08/01 00:31:17;;;;;;;23.38;16.42;;;;;;;18.40;100.00;68813.94;5016218;28;20045;-79
2022/08/01 00:33:42;;;;;;;24.45;16.30;;;;;;;18.44;100.00;68815.81;5018252;28;20037;-79
2022/08/01 00:36:08;;;;;;;25.00;16.58;;;;;;;18.40;100.00;68811.25;5018961;28;20052;-79
2022/08/01 00:38:33;;;;;;;24.70;15.38;;;;;;;18.37;100.00;68807.81;5018513;28;20048;-79
2022/08/01 00:40:58;;;;;;;24.38;15.18;;;;;;;18.36;100.00;68809.94;5017826;28;20038;-79
2022/08/01 00:43:24;;;;;;;28.27;18.20;;;;;;;;;;5019060;28;20053;-79
2022/08/01 00:45:49;;;;;;;24.98;15.50;;;;;;;18.40;100.00;68819.31;5016455;28;20049;-79
2022/08/01 00:48:15;;;;;;;26.15;14.85;;;;;;;18.37;100.00;68810.50;5014217;28;20038;-79
2022/08/01 00:50:40;;;;;;;27.77;18.25;;;;;;;18.39;100.00;68813.38;5016515;28;20033;-79
2022/08/01 00:53:05;;;;;;;27.92;18.05;;;;;;;;;;5016529;28;20054;-79
2022/08/01 00:55:31;;;;;;;26.10;17.67;;;;;;;18.41;100.00;68820.47;5017639;28;20529;-79
2022/08/01 00:57:57;;;;;;;21.15;15.00;;;;;;;;;;5017551;28;20116;-79
2022/08/01 01:00:25;;;;;;;22.70;15.05;;;;;;;18.37;100.00;68810.50;5016005;28;20046;-79
2022/08/01 01:02:50;;;;;;;23.52;15.65;;;;;;;;;;5016572;28;20045;-79
2022/08/01 01:05:16;;;;;;;18.85;12.18;;;;;;;18.31;100.00;68804.22;5014356;28;20097;-79
2022/08/01 01:07:58;;;;;;;19.80;11.00;;;;;;;18.31;100.00;68804.22;5013226;28;20109;-79
2022/08/01 01:10:36;;;;;;;19.38;13.18;;;;;;;18.29;100.00;68801.94;5013395;28;20560;-79
2022/08/01 01:13:04;;;;;;;16.33;11.27;;;;;;;;;;5012435;28;20050;-79
2022/08/01 01:15:36;;;;;;;14.13;9.45;;;;;;;18.25;100.00;68803.34;5014408;28;20042;-79
2022/08/01 01:18:12;;;;;;;15.52;11.05;;;;;;;18.27;100.00;68792.16;5016239;28;20037;-79
2022/08/01 01:20:41;;;;;;;14.30;9.32;;;;;;;18.24;100.00;68802.22;5014388;28;20568;-79
2022/08/01 01:23:36;;;;;;;16.02;10.23;;;;;;;18.28;100.00;68798.13;5015801;28;20045;-79
2022/08/01 01:26:14;;;;;;;16.08;9.82;;;;;;;18.26;100.00;68798.53;4973127;28;20050;-79
2022/08/01 01:29:03;;;;;;;13.10;9.15;;;;;;;18.23;100.00;68795.66;5015231;28;20030;-79
2022/08/01 01:31:30;;;;;;;11.18;6.47;;;;;;;;;;5013439;28;20096;-79
2022/08/01 01:33:59;;;;;;;14.50;9.93;;;;;;;18.20;100.00;68797.63;5016272;28;20378;-79
2022/08/01 01:36:25;;;;;;;15.27;8.55;;;;;;;;;;5014295;28;20046;-79
2022/08/01 01:38:52;;;;;;;14.98;8.27;;;;;;;18.19;100.00;68791.09;5016476;28;20096;-79
2022/08/01 01:41:19;;;;;;;14.35;8.38;;;;;;;18.21;100.00;68792.81;5013811;28;20512;-79
2022/08/01 01:43:47;;;;;;;12.48;8.85;;;;;;;18.26;100.00;68798.53;5013312;28;20080;-79
2022/08/01 01:46:15;;;;;;;12.55;8.15;;;;;;;;;;5014051;28;20044;-79
2022/08/01 01:48:44;;;;;;;13.23;8.30;;;;;;;18.22;100.00;68799.91;5014259;28;20484;-79
2022/08/01 01:51:11;;;;;;;12.82;8.82;;;;;;;;;;5013064;28;20057;-79
2022/08/01 01:53:36;;;;;;;13.70;8.73;;;;;;;18.18;100.00;68789.38;5013669;28;20183;-79
2022/08/01 01:56:03;;;;;;;13.75;9.50;;;;;;;18.18;100.00;68787.28;5015050;28;20046;-79
2022/08/01 01:58:30;;;;;;;13.02;8.93;;;;;;;18.18;100.00;68789.97;5013299;28;20677;-79
2022/08/01 02:00:59;;;;;;;12.15;8.25;;;;;;;18.18;100.00;68789.38;5014189;28;20050;-79
2022/08/01 02:03:26;;;;;;;14.70;9.40;;;;;;;18.14;100.00;68785.41;5013201;28;20042;-79
2022/08/01 02:05:52;;;;;;;13.02;9.70;;;;;;;;;;5013886;28;20050;-79
2022/08/01 02:08:19;;;;;;;16.15;8.63;;;;;;;18.11;100.00;68787.34;5014745;28;20513;-79
2022/08/01 02:13:31;;;;;;;13.13;9.00;;;;;;;;;;4999121;28;20037;-79
2022/08/01 02:15:57;;;;;;;14.13;8.85;;;;;;;18.09;100.00;68787.19;4995794;28;20498;-79
2022/08/01 02:18:23;;;;;;;12.63;7.75;;;;;;;18.07;100.00;68777.41;5011017;28;20048;-79
2022/08/01 02:20:51;;;;;;;15.18;8.38;;;;;;;18.08;100.00;68777.97;5009743;28;20042;-79
2022/08/01 02:23:16;;;;;;;15.25;9.50;;;;;;;;;;5009892;28;20034;-79
2022/08/01 02:25:44;;;;;;;14.93;9.07;;;;;;;;;;5007691;28;20041;-79
2022/08/01 02:28:28;;;;;;;14.63;8.65;;;;;;;18.06;100.00;68773.00;4994810;28;20054;-79
2022/08/01 02:30:56;;;;;;;13.80;9.52;;;;;;;18.05;100.00;68775.13;4992944;28;20049;-79
2022/08/01 02:33:27;;;;;;;15.13;9.43;;;;;;;18.05;100.00;68780.50;5012422;28;20042;-79
2022/08/01 02:35:58;;;;;;;13.85;9.52;;;;;;;18.06;100.00;68773.00;5012183;28;20405;-79
2022/08/01 02:38:28;;;;;;;14.30;9.02;;;;;;;18.05;100.00;68775.13;5011100;28;20509;-79
2022/08/01 02:40:57;;;;;;;12.85;8.45;;;;;;;;;;5010150;28;20038;-79
2022/08/01 02:43:26;;;;;;;14.98;9.02;;;;;;;18.02;100.00;68771.69;5013629;28;20034;-79
2022/08/01 02:45:52;;;;;;;;;;;;;;;18.02;100.00;68772.28;5013226;28;20073;-79
2022/08/01 02:48:19;;;;;;;12.70;8.40;;;;;;;17.97;100.00;68766.00;5015385;28;20312;-79
2022/08/01 02:50:47;;;;;;;15.55;9.77;;;;;;;;;;5012706;28;20052;-79
2022/08/01 02:53:13;;;;;;;16.00;9.20;;;;;;;;;;5015067;28;20041;-79
2022/08/01 02:55:40;;;;;;;15.20;9.15;;;;;;;;;;5012862;28;20058;-79
2022/08/01 02:58:07;;;;;;;16.58;9.23;;;;;;;18.04;100.00;68774.00;5015307;28;20563;-79
2022/08/01 03:00:33;;;;;;;13.57;8.82;;;;;;;;;;5013440;28;20140;-79
2022/08/01 03:03:00;;;;;;;11.93;8.05;;;;;;;18.02;100.00;68769.56;5012242;28;20470;-79
2022/08/01 03:05:27;;;;;;;13.48;9.02;;;;;;;18.00;100.00;68774.81;5013565;28;20572;-79
2022/08/01 03:07:55;;;;;;;15.90;9.05;;;;;;;18.02;100.00;68771.69;5014214;28;20103;-79
2022/08/01 03:10:22;;;;;;;14.20;8.55;;;;;;;17.98;100.00;68767.72;5014221;28;20132;-79
2022/08/01 03:12:48;;;;;;;15.73;9.52;;;;;;;;;;5012104;28;20065;-79
2022/08/01 03:15:15;;;;;;;14.52;9.65;;;;;;;17.98;100.00;68767.72;5014260;28;20060;-79
2022/08/01 03:17:44;;;;;;;14.57;7.50;;;;;;;17.98;100.00;68767.72;5013636;28;20050;-79
2022/08/01 03:20:12;;;;;;;14.63;8.23;;;;;;;17.97;100.00;68771.38;5015040;28;20045;-79
2022/08/01 03:22:39;;;;;;;14.40;8.10;;;;;;;17.97;100.00;68771.38;5010968;28;20304;-79
2022/08/01 03:25:06;;;;;;;13.93;8.20;;;;;;;17.94;100.00;68762.56;5013490;28;20054;-79
2022/08/01 03:27:32;;;;;;;14.07;7.35;;;;;;;17.95;100.00;68764.28;5012577;28;20038;-79
2022/08/01 03:30:02;;;;;;;12.82;8.52;;;;;;;17.99;100.00;68768.28;5014618;28;20046;-79
2022/08/01 03:32:28;;;;;;;12.82;7.88;;;;;;;;;;5011181;28;20068;-79
2022/08/01 03:34:53;;;;;;;13.82;8.55;;;;;;;17.95;100.00;68763.69;5013638;28;20128;-79
2022/08/01 03:37:25;;;;;;;13.88;9.45;;;;;;;17.95;100.00;68761.00;5014395;28;20262;-79
2022/08/01 03:40:11;;;;;;;13.93;9.20;;;;;;;17.93;100.00;68761.44;5017402;28;20069;-79
2022/08/01 03:42:47;;;;;;;14.93;9.73;;;;;;;17.91;100.00;68756.44;5018945;28;20050;-79
2022/08/01 03:45:25;;;;;;;12.98;8.00;;;;;;;17.87;100.00;68754.59;5021275;28;20050;-79
2022/08/01 03:47:58;;;;;;;15.55;9.80;;;;;;;17.86;100.00;68753.44;5018185;28;20053;-79
2022/08/01 03:50:24;;;;;;;14.75;8.52;;;;;;;17.80;100.00;68747.72;5021994;28;20044;-79
2022/08/01 03:52:51;;;;;;;15.35;9.32;;;;;;;17.79;100.00;68751.97;5019709;28;20155;-79
2022/08/01 03:55:18;;;;;;;14.23;8.52;;;;;;;17.77;100.00;68743.72;5017779;28;20057;-79
2022/08/01 03:57:46;;;;;;;16.77;8.15;;;;;;;17.76;100.00;68742.56;5021197;28;20442;-79
2022/08/01 04:00:12;;;;;;;14.77;10.02;;;;;;;17.76;100.00;68742.56;5019837;28;20037;-79
2022/08/01 04:02:38;;;;;;;13.73;9.02;;;;;;;17.81;100.00;68748.88;5019967;28;20061;-79
2022/08/01 04:05:04;;;;;;;14.10;8.45;;;;;;;;;;5018999;28;20057;-79
2022/08/01 04:07:30;;;;;;;12.65;8.60;;;;;;;;;;5017786;28;20038;-80
2022/08/01 04:09:56;;;;;;;9.77;6.43;;;;;;;;;;5017876;28;20038;-79
2022/08/01 04:12:22;;;;;;;11.93;7.22;;;;;;;17.70;100.00;68736.31;5020255;28;20049;-79
2022/08/01 04:14:48;;;;;;;9.98;5.50;;;;;;;17.68;100.00;68730.75;5020550;28;20129;-79
2022/08/01 04:17:14;;;;;;;9.23;5.90;;;;;;;17.67;100.00;68727.50;5020177;28;20038;-78
2022/08/01 04:19:40;;;;;;;9.63;5.30;;;;;;;17.64;100.00;68729.47;5020168;28;20050;-79
2022/08/01 04:22:06;;;;;;;10.18;5.90;;;;;;;17.64;100.00;68729.47;5017266;28;20519;-81
2022/08/01 04:24:35;;;;;;;10.45;6.63;;;;;;;17.67;100.00;68732.88;5013357;28;20405;-82
2022/08/01 04:27:01;;;;;;;13.57;7.30;;;;;;;17.67;100.00;68738.25;5012264;28;20074;-81
2022/08/01 04:29:29;;;;;;;9.88;6.13;;;;;;;17.70;100.00;68733.59;5012706;28;20041;-80
2022/08/01 04:31:59;;;;;;;8.57;5.35;;;;;;;17.65;100.00;68730.59;5002140;28;20085;-80
2022/08/01 04:34:28;;;;;;;13.05;6.18;;;;;;;17.60;100.00;68725.44;4991562;28;20050;-80
2022/08/01 04:36:56;;;;;;;8.00;5.47;;;;;;;17.63;100.00;68728.31;4995346;28;20046;-81
2022/08/01 04:39:27;;;;;;;9.30;5.32;;;;;;;17.60;100.00;68725.44;5009542;28;20058;-81
2022/08/01 04:41:56;;;;;;;8.10;5.13;;;;;;;17.57;100.00;68727.41;5010497;28;20072;-79
2022/08/01 04:44:22;;;;;;;;;;;;;;;17.57;100.00;68726.84;5000247;28;20035;-81
2022/08/01 04:46:48;;;;;;;10.68;5.47;;;;;;;17.56;100.00;68720.88;5008254;28;19924;-80
2022/08/01 04:49:16;;;;;;;7.68;5.47;;;;;;;17.51;100.00;68714.63;5010762;28;20098;-80
2022/08/01 04:51:57;;;;;;;6.97;5.38;;;;;;;;;;5010639;28;20099;-81
2022/08/01 04:54:27;;;;;;;9.77;6.03;;;;;;;17.57;100.00;68722.03;5011612;28;20486;-80
2022/08/01 04:56:54;;;;;;;9.60;6.05;;;;;;;;;;5006841;28;20489;-81
2022/08/01 05:02:03;;;;;;;10.05;5.97;;;;;;;17.62;100.00;68727.16;5003995;28;20112;-80
2022/08/01 05:04:28;;;;;;;9.82;5.93;;;;;;;;;;5001162;28;20038;-80
2022/08/01 05:06:54;;;;;;;7.50;4.73;;;;;;;17.64;100.00;68726.75;5008267;28;20045;-81
2022/08/01 05:09:20;;;;;;;7.30;5.40;;;;;;;17.66;100.00;68731.72;5012983;28;20281;-80
2022/08/01 05:11:45;;;;;;;7.53;4.93;;;;;;;;;;5013609;28;20100;-80
2022/08/01 05:14:10;;;;;;;6.90;4.65;;;;;;;17.71;100.00;68742.25;5013208;28;20495;-80
2022/08/01 05:16:36;;;;;;;6.63;4.63;;;;;;;;;;5011545;28;20038;-80
2022/08/01 05:19:02;;;;;;;7.22;4.90;;;;;;;;;;5010191;28;20085;-80
2022/08/01 05:21:27;;;;;;;6.47;4.90;;;;;;;17.72;100.00;68735.91;5012505;28;20460;-82
2022/08/01 05:23:53;;;;;;;5.95;4.68;;;;;;;17.72;100.00;68738.59;5011465;28;20042;-82
2022/08/01 05:26:18;;;;;;;9.02;5.82;;;;;;;17.72;100.00;68738.59;5013015;28;20045;-80
2022/08/01 05:28:44;;;;;;;6.80;4.82;;;;;;;17.75;100.00;68742.00;5010093;28;20045;-81
2022/08/01 05:31:09;;;;;;;8.60;5.50;;;;;;;;;;5013885;28;20041;-82
2022/08/01 05:33:34;;;;;;;7.32;5.10;;;;;;;17.75;100.00;68742.00;5010922;28;20042;-81
2022/08/01 05:36:00;;;;;;;7.80;4.78;;;;;;;;;;5013579;28;20450;-81
2022/08/01 05:38:25;;;;;;;7.38;4.75;;;;;;;17.83;100.00;68744.63;5018921;28;20581;-83
2022/08/01 05:40:50;;;;;;;8.25;5.60;;;;;;;17.82;100.00;68746.75;5011249;28;20054;-80
2022/08/01 05:43:16;;;;;;;9.48;5.32;;;;;;;17.79;100.00;68746.59;5011833;28;20049;-82
2022/08/01 05:45:41;;;;;;;7.38;5.20;;;;;;;17.87;100.00;68751.91;5012577;28;20038;-81
2022/08/01 05:48:07;;;;;;;7.90;5.13;;;;;;;17.93;100.00;68761.44;5011565;28;20046;-81
2022/08/01 05:50:32;;;;;;;8.82;5.13;;;;;;;17.96;100.00;68770.25;5012756;28;20125;-81
2022/08/01 05:52:58;;;;;;;6.55;4.65;;;;;;;;;;5011773;28;20038;-83
2022/08/01 05:55:23;;;;;;;6.77;4.47;;;;;;;18.06;100.00;68776.25;5012434;28;20132;-83
2022/08/01 05:57:48;;;;;;;6.60;5.22;;;;;;;18.06;100.00;68775.69;5012063;28;20356;-81
2022/08/01 06:00:15;;;;;;;7.72;5.45;;;;;;;18.00;100.00;68766.72;5013818;28;20046;-83
2022/08/01 06:02:42;;;;;;;7.22;5.57;;;;;;;18.02;100.00;68771.69;5007037;28;20042;-80
2022/08/01 06:05:09;;;;;;;6.13;3.90;;;;;;;17.99;100.00;68768.28;5006916;28;20042;-80
2022/08/01 06:07:34;;;;;;;6.57;5.15;;;;;;;17.98;100.00;68767.13;5006947;28;20045;-80
2022/08/01 06:09:59;;;;;;;7.38;5.05;;;;;;;18.00;100.00;68769.41;5005498;28;20050;-81
2022/08/01 06:12:25;;;;;;;7.82;5.45;;;;;;;17.96;100.00;68762.72;4993925;28;20512;-82
2022/08/01 06:14:50;;;;;;;6.47;5.15;;;;;;;17.99;100.00;68768.28;4998837;28;20054;-81
2022/08/01 06:17:15;;;;;;;7.80;5.68;;;;;;;;;;5010935;28;20072;-81
2022/08/01 06:19:41;;;;;;;7.53;5.43;;;;;;;18.09;100.00;68779.13;5003253;28;20042;-81
2022/08/01 06:22:06;;;;;;;8.15;6.18;;;;;;;18.10;100.00;68778.16;5008535;28;20272;-81
2022/08/01 06:24:31;;;;;;;8.27;5.63;;;;;;;18.16;100.00;68787.13;5003707;28;20052;-81
2022/08/01 06:26:57;;;;;;;9.50;6.90;;;;;;;18.09;100.00;68779.69;5010615;28;20049;-83
2022/08/01 06:29:22;;;;;;;8.80;6.72;;;;;;;18.19;100.00;68788.41;4994065;28;20612;-80
2022/08/01 06:31:47;;;;;;;7.75;6.35;;;;;;;18.16;100.00;68787.69;5006012;28;20049;-82
2022/08/01 06:34:15;;;;;;;9.95;5.95;;;;;;;18.19;100.00;68790.53;5008186;28;20042;-80
2022/08/01 06:36:40;;;;;;;9.95;6.38;;;;;;;;;;5009637;28;20172;-81
2022/08/01 06:39:05;;;;;;;7.80;6.20;;;;;;;;;;5005467;28;20133;-81
2022/08/01 06:41:30;;;;;;;6.57;5.27;;;;;;;18.28;100.00;68800.81;4995464;28;20282;-82
2022/08/01 06:43:56;;;;;;;5.93;4.55;;;;;;;;;;5001362;28;20270;-81
2022/08/01 06:46:21;;;;;;;5.93;4.40;;;;;;;18.17;100.00;68782.88;5009794;28;20581;-80
2022/08/01 06:48:46;;;;;;;6.78;5.43;;;;;;;18.10;100.00;68785.66;5010032;28;20342;-81
2022/08/01 06:51:15;;;;;;;4.40;3.13;;;;;;;18.02;100.00;68769.56;5008736;28;20029;-83
2022/08/01 06:53:40;;;;;;;5.13;3.03;;;;;;;17.80;100.00;68747.72;5010535;28;20125;-83
2022/08/01 06:56:08;;;;;;;5.32;3.25;;;;;;;17.68;100.00;68734.00;5012113;28;20559;-83
2022/08/01 06:58:34;;;;;;;4.10;2.67;;;;;;;17.54;100.00;68718.03;5010831;28;20121;-80
2022/08/01 07:01:00;;;;;;;5.47;3.08;;;;;;;17.53;100.00;68714.22;5011071;28;20041;-80
2022/08/01 07:03:26;;;;;;;5.43;3.70;;;;;;;17.49;100.00;68712.31;5011393;28;20046;-82
2022/08/01 07:05:52;;;;;;;4.13;3.40;;;;;;;17.39;100.00;68701.50;5010120;28;20062;-81
2022/08/01 07:08:17;;;;;;;7.20;4.40;;;;;;;17.34;100.00;68695.78;5010212;28;20042;-82
2022/08/01 07:10:43;;;;;;;5.20;3.85;;;;;;;17.35;100.00;68694.25;5008768;28;20038;-83
2022/08/01 07:13:08;;;;;;;5.30;4.35;;;;;;;17.36;100.00;68698.63;5006889;28;20042;-81
2022/08/01 07:15:34;;;;;;;6.85;5.05;;;;;;;17.49;100.00;68720.41;5005995;28;20046;-81
2022/08/01 07:18:03;;;;;;;8.68;5.30;;;;;;;17.51;100.00;68720.56;5002490;28;20133;-82
2022/08/01 07:20:29;;;;;;;7.80;5.57;;;;;;;17.47;100.00;68710.06;5009925;28;20038;-84
2022/08/01 07:22:54;;;;;;;7.03;5.70;;;;;;;;;;5002128;28;20463;-83
2022/08/01 07:25:19;;;;;;;8.70;5.45;;;;;;;17.57;100.00;68716.06;5008227;28;20061;-81
2022/08/01 07:27:45;;;;;;;6.65;5.43;;;;;;;;;;5010777;28;20102;-83
2022/08/01 07:30:11;;;;;;;7.03;5.25;;;;;;;17.58;100.00;68722.63;5014024;28;20129;-81
2022/08/01 07:32:36;;;;;;;7.00;5.50;;;;;;;17.60;100.00;68724.88;5003832;28;20118;-82
2022/08/01 07:35:02;;;;;;;6.90;4.72;;;;;;;;;;4999856;28;20043;-82
2022/08/01 07:37:27;;;;;;;6.68;5.60;;;;;;;17.50;100.00;68713.47;5003018;28;20050;-82
2022/08/01 07:39:53;;;;;;;7.10;5.53;;;;;;;17.63;100.00;68725.59;5008694;28;20053;-82
2022/08/01 07:42:18;;;;;;;6.50;5.28;;;;;;;;;;5012461;28;20029;-82
2022/08/01 07:44:43;;;;;;;7.68;5.90;;;;;;;17.67;100.00;68732.88;5005384;28;20081;-83
2022/08/01 07:47:09;;;;;;;8.07;6.25;;;;;;;;;;5006727;28;20049;-82
2022/08/01 07:49:35;;;;;;;8.15;6.85;;;;;;;17.63;100.00;68728.31;5006700;28;20464;-83
2022/08/01 07:52:00;;;;;;;8.38;6.53;;;;;;;17.67;100.00;68738.25;5010131;28;20045;-83
2022/08/01 07:54:27;;;;;;;9.65;8.02;;;;;;;17.72;100.00;68738.59;5017817;28;20439;-84
2022/08/01 07:56:53;;;;;;;7.82;5.90;;;;;;;17.78;100.00;68744.88;5030791;28;20034;-81
2022/08/01 07:59:22;;;;;;;6.55;5.07;;;;;;;17.69;100.00;68735.16;4994173;28;20047;-81
2022/08/01 08:01:47;;;;;;;;;;;;;;;;;;5006745;28;20042;-84
2022/08/01 08:04:13;;;;;;;3.95;3.28;;;;;;;17.53;100.00;68717.47;5009284;28;19964;-84
2022/08/01 08:06:38;;;;;;;4.72;3.10;;;;;;;17.50;100.00;68713.47;5000515;28;20136;-82
2022/08/01 08:09:03;;;;;;;7.40;4.00;;;;;;;17.61;100.00;68726.03;5008835;28;20123;-82
2022/08/01 08:11:29;;;;;;;5.00;3.60;;;;;;;17.70;100.00;68736.31;5007623;28;20123;-82
2022/08/01 08:13:54;;;;;;;6.28;4.00;;;;;;;;;;5009833;28;20038;-82
2022/08/01 08:16:20;;;;;;;5.75;4.45;;;;;;;17.64;100.00;68729.47;5009563;28;20041;-81
2022/08/01 08:18:46;;;;;;;6.60;4.95;;;;;;;17.67;100.00;68732.88;4998169;28;20038;-82
2022/08/01 08:21:11;;;;;;;7.40;5.90;;;;;;;17.74;100.00;68740.28;5000081;28;20563;-83
2022/08/01 08:26:20;;;;;;;7.97;6.40;;;;;;;17.88;100.00;68755.72;5005831;28;20129;-82
2022/08/01 08:28:46;;;;;;;8.80;5.95;;;;;;;17.92;100.00;68757.59;5007531;28;20074;-82
2022/08/01 08:31:11;;;;;;;9.75;7.55;;;;;;;17.98;100.00;68767.13;5012042;28;20045;-82
2022/08/01 08:33:36;;;;;;;9.05;6.75;;;;;;;17.97;100.00;68766.00;5004544;28;20523;-83
2022/08/01 08:36:02;;;;;;;9.98;7.68;;;;;;;18.00;100.00;68769.97;4991731;28;20042;-82
2022/08/01 08:38:27;;;;;;;11.80;7.43;;;;;;;17.98;100.00;68767.72;5007578;28;20521;-83
2022/08/01 08:40:53;;;;;;;8.63;7.18;;;;;;;;;;4999861;28;20166;-83
2022/08/01 08:43:19;;;;;;;9.55;7.90;;;;;;;17.92;100.00;68760.28;5001661;28;20044;-82
2022/08/01 08:45:45;;;;;;;10.65;7.53;;;;;;;17.97;100.00;68771.94;4997616;28;20080;-84
2022/08/01 08:48:12;;;;;;;8.70;6.28;;;;;;;17.95;100.00;68763.69;5005872;28;20037;-83
2022/08/01 08:50:38;;;;;;;7.95;6.50;;;;;;;17.89;100.00;68756.84;4994051;28;20114;-84
2022/08/01 08:53:04;;;;;;;10.18;7.60;;;;;;;;;;5010314;28;20073;-82
2022/08/01 08:55:29;;;;;;;9.50;6.80;;;;;;;18.19;100.00;68791.09;5014175;28;20076;-83
2022/08/01 08:57:56;;;;;;;8.57;6.63;;;;;;;18.21;100.00;68792.81;5004588;28;20038;-83
2022/08/01 09:00:21;;;;;;;7.65;5.97;;;;;;;18.27;100.00;68805.06;5007119;28;20042;-82
2022/08/01 09:02:55;;;;;;;9.90;6.45;;;;;;;18.15;100.00;68786.53;5013006;28;20702;-83
2022/08/01 09:05:25;;;;;;;7.35;6.63;;;;;;;18.16;100.00;68787.69;5013774;28;20037;-83
2022/08/01 09:07:51;;;;;;;6.85;6.00;;;;;;;18.13;100.00;68783.69;5007194;28;20176;-83
2022/08/01 09:10:17;;;;;;;7.65;6.78;;;;;;;18.10;100.00;68780.84;5013920;28;20037;-83
2022/08/01 09:13:01;;;;;;;7.53;6.70;;;;;;;;;;5013120;28;20112;-82
2022/08/01 09:15:41;;;;;;;7.88;7.07;;;;;;;18.32;100.00;68804.81;5011912;28;20524;-83
2022/08/01 09:18:07;;;;;;;9.43;5.88;;;;;;;;;;5015646;28;20061;-83
2022/08/01 09:20:35;;;;;;;7.32;6.05;;;;;;;18.22;100.00;68794.53;5009040;28;20037;-82
2022/08/01 09:23:01;;;;;;;9.65;6.28;;;;;;;18.25;100.00;68792.00;5000756;28;20042;-84
2022/08/01 09:25:32;;;;;;;7.63;6.20;;;;;;;18.20;100.00;68791.66;5002603;28;20665;-84
2022/08/01 09:28:05;;;;;;;9.32;6.72;;;;;;;18.11;100.00;68781.41;5001827;28;20074;-83
2022/08/01 09:30:38;;;;;;;9.38;7.43;;;;;;;18.07;100.00;68782.22;5004282;28;20505;-86
2022/08/01 09:33:04;;;;;;;9.82;7.90;;;;;;;18.09;100.00;68779.69;5003767;28;20057;-83
2022/08/01 09:35:36;;;;;;;10.40;8.10;;;;;;;18.18;100.00;68789.97;5011104;28;20080;-83
2022/08/01 09:38:12;;;;;;;9.73;8.15;;;;;;;;;;4998195;28;20066;-83
2022/08/01 09:40:58;;;;;;;12.93;8.75;;;;;;;18.08;100.00;68777.97;5002205;28;20049;-82
2022/08/01 09:43:27;;;;;;;13.52;9.68;;;;;;;18.04;100.00;68774.56;5011976;28;20572;-83
2022/08/01 09:45:52;;;;;;;15.20;9.77;;;;;;;;;;5011125;28;20045;-84
2022/08/01 09:48:19;;;;;;;12.70;10.50;;;;;;;18.11;100.00;68787.34;5011760;28;20095;-83
2022/08/01 09:50:49;;;;;;;15.02;10.93;;;;;;;18.04;100.00;68774.00;5002298;28;20581;-83
2022/08/01 09:53:16;;;;;;;13.18;9.20;;;;;;;18.08;100.00;68778.53;4997079;28;20045;-82
2022/08/01 09:55:42;;;;;;;16.88;10.57;;;;;;;18.24;100.00;68794.13;4998142;28;20051;-82
2022/08/01 09:58:10;;;;;;;14.35;9.55;;;;;;;18.29;100.00;68796.00;5001882;28;20068;-82
2022/08/01 10:00:36;;;;;;;11.98;8.43;;;;;;;18.23;100.00;68795.66;5009481;28;20050;-82
2022/08/01 10:03:22;;;;;;;14.82;10.10;;;;;;;18.42;100.00;68816.22;5010429;28;20095;-84
2022/08/01 10:05:48;;;;;;;11.90;8.55;;;;;;;18.46;100.00;68818.09;5009168;28;20046;-83
2022/08/01 10:08:14;;;;;;;11.77;8.55;;;;;;;18.54;100.00;68829.34;5009721;28;20042;-82
2022/08/01 10:10:39;;;;;;;12.27;8.57;;;;;;;18.55;100.00;68828.38;4999940;28;20037;-83
2022/08/01 10:13:05;;;;;;;12.82;9.38;;;;;;;18.72;100.00;68847.22;5007340;28;20053;-82
2022/08/01 10:15:32;;;;;;;13.15;8.80;;;;;;;18.91;100.00;68871.06;5004955;28;20664;-84
2022/08/01 10:18:03;;;;;;;9.70;7.60;;;;;;;18.98;100.00;68884.44;5008460;28;20045;-83
2022/08/01 10:20:31;;;;;;;10.02;7.55;;;;;;;18.87;100.00;68867.06;5010675;28;20049;-83
2022/08/01 10:23:00;;;;;;;9.82;6.78;;;;;;;18.79;100.00;68857.34;5003923;28;20078;-81
2022/08/01 10:25:28;;;;;;;8.70;6.63;;;;;;;18.72;100.00;68850.47;5005519;28;20048;-83
2022/08/01 10:27:56;;;;;;;9.15;7.00;;;;;;;18.68;100.00;68845.91;5010727;28;20030;-83
2022/08/01 10:30:22;;;;;;;10.50;7.43;;;;;;;18.71;100.00;68849.34;5006727;28;20528;-83
2022/08/01 10:32:49;;;;;;;10.25;7.18;;;;;;;18.64;100.00;68841.34;5011457;28;20390;-83
2022/08/01 10:35:17;;;;;;;10.93;7.15;;;;;;;18.53;100.00;68834.19;4991350;28;20109;-82
2022/08/01 10:37:45;;;;;;;10.13;7.72;;;;;;;18.79;100.00;68857.94;4991635;28;20043;-82
2022/08/01 10:40:11;;;;;;;11.85;8.57;;;;;;;;;;5007134;28;20042;-82
2022/08/01 10:42:38;;;;;;;10.55;7.35;;;;;;;19.05;100.00;68884.34;5010542;28;20061;-82
2022/08/01 10:45:04;;;;;;;9.82;7.28;;;;;;;;;;5009595;28;20087;-82
2022/08/01 10:47:38;;;;;;;9.88;6.97;;;;;;;;;;5006878;28;20042;-82
2022/08/01 10:50:12;;;;;;;8.98;6.47;;;;;;;19.62;100.00;68945.06;5009925;28;20060;-83
2022/08/01 10:52:37;;;;;;;9.52;6.72;;;;;;;19.68;100.00;68957.34;5009701;28;20168;-83
2022/08/01 10:55:04;;;;;;;9.82;7.15;;;;;;;19.56;100.00;68943.59;5010471;28;20038;-82
2022/08/01 10:57:44;;;;;;;9.75;7.18;;;;;;;19.73;100.00;68959.78;5007245;28;20061;-82
2022/08/01 11:00:18;;;;;;;9.63;7.30;;;;;;;19.70;100.00;68956.34;5010040;28;20042;-83
2022/08/01 11:02:57;;;;;;;10.18;7.50;;;;;;;19.59;100.00;68942.22;5010718;28;20045;-83
2022/08/01 11:05:24;;;;;;;8.68;6.95;;;;;;;19.50;100.00;68931.91;5015709;28;20037;-82
2022/08/01 11:07:53;;;;;;;10.70;7.10;;;;;;;19.57;100.00;68942.06;5014042;28;20048;-82
2022/08/01 11:10:34;;;;;;;12.88;6.68;;;;;;;19.66;100.00;68954.50;5012256;28;20041;-83
2022/08/01 11:13:02;;;;;;;11.48;6.43;;;;;;;19.69;100.00;68955.22;5013101;28;20050;-82
2022/08/01 11:15:28;;;;;;;10.20;6.33;;;;;;;20.01;100.00;68994.47;5014298;28;20042;-82
2022/08/01 11:17:54;;;;;;;9.75;5.13;;;;;;;20.27;100.00;69020.38;4996381;28;20063;-81
2022/08/01 11:20:21;;;;;;;10.90;4.88;;;;;;;20.22;99.45;69017.34;4995877;28;20053;-82
2022/08/01 11:23:03;;;;;;;10.65;5.40;;;;;;;20.18;96.86;69010.06;4996707;28;20081;-83
2022/08/01 11:25:45;;;;;;;9.68;5.07;;;;;;;20.30;100.00;69023.78;5012094;28;20049;-82
2022/08/01 11:28:14;;;;;;;10.75;5.05;;;;;;;;;;5008845;28;20664;-82
2022/08/01 11:30:44;;;;;;;10.15;4.63;;;;;;;20.34;99.28;69027.78;5013751;28;20069;-83
2022/08/01 11:33:10;;;;;;;8.55;5.10;;;;;;;20.33;98.89;69023.94;5017292;28;20050;-82
2022/08/01 11:35:36;;;;;;;9.18;6.05;;;;;;;20.34;99.07;69028.38;5020293;28;20129;-82
2022/08/01 11:38:28;;;;;;;8.52;4.70;;;;;;;20.59;100.00;69053.13;5016656;28;20079;-83
2022/08/01 11:41:21;;;;;;;10.65;4.95;;;;;;;20.57;98.34;69056.25;5013881;28;20096;-82
2022/08/01 11:43:56;;;;;;;8.00;4.32;;;;;;;20.58;98.35;69057.41;5011538;28;20048;-83
2022/08/01 11:47:02;;;;;;;6.47;3.78;;;;;;;20.57;94.50;69054.13;5005945;28;20045;-82
2022/08/01 11:49:37;;;;;;;6.60;2.97;;;;;;;20.59;93.53;69058.53;5009293;28;20161;-83
2022/08/01 11:52:22;;;;;;;8.77;3.53;;;;;;;;;;5016106;28;21221;-83
2022/08/01 11:55:05;;;;;;;6.55;3.15;;;;;;;20.79;91.92;69078.69;5018032;28;20572;-83
2022/08/01 11:57:36;;;;;;;6.97;3.13;;;;;;;20.90;90.98;69088.56;5015409;28;20049;-83
2022/08/01 12:00:18;;;;;;;6.75;3.30;;;;;;;20.96;87.67;69094.88;5007944;28;20038;-83
2022/08/01 12:02:44;;;;;;;5.40;2.80;;;;;;;20.85;89.19;69085.00;5015758;28;20037;-82
2022/08/01 12:05:17;;;;;;;5.20;2.80;;;;;;;20.88;86.93;69091.69;5015846;28;20042;-83